Home > Products > Valid Products > TAF

000
FTUS45 KBOU 011128
TAFBJC
TAF
KBJC 011128Z 0112/0212 VRB05KT P6SM FEW220
     FM012000 12007KT P6SM FEW090 SCT130 BKN200
     FM020000 02007KT P6SM SCT140 BKN200
     FM020300 VRB05KT P6SM SCT140 SCT200
     FM020800 29012KT P6SM SCT140 BKN200=



000
FTUS45 KBOU 011128
TAFAPA
TAF
KAPA 011128Z 0112/0212 20008KT P6SM FEW140 SCT220
     FM012100 16008KT P6SM FEW090 SCT130 BKN200
     FM012300 20010KT P6SM SCT130 BKN200
     FM020300 17008KT P6SM SCT140 SCT200=



000
FTUS45 KBOU 011128
TAFDEN
TAF
KDEN 011128Z 0112/0218 16005KT P6SM FEW150 SCT220
     FM011600 15007KT P6SM SCT140 SCT220
     FM012000 10008KT P6SM SCT130 BKN200
     FM012300 08008KT P6SM FEW090 SCT120 BKN200
     FM020400 23010KT P6SM SCT140 SCT200
     FM021400 22008KT P6SM SCT120 BKN200=



000
FTUS45 KBOU 010901 AAA
TAFDEN
TAF AMD
KDEN 010901Z 0109/0212 21008KT P6SM SCT150
     FM011600 15007KT P6SM SCT140 SCT220
     FM012000 10008KT P6SM SCT130 BKN200
     FM012300 05008KT P6SM FEW090 SCT130 BKN200
     FM020400 23011KT P6SM FEW140 SCT200=



000
FTUS45 KBOU 010533
TAFAPA
TAF
KAPA 010533Z 0106/0206 25006KT P6SM FEW140 SCT220
     FM010700 20007KT P6SM FEW140 SCT220
     FM012200 16008KT P6SM FEW090 SCT130 BKN200
     FM012300 20010KT P6SM SCT130 BKN200
     FM020300 17006KT P6SM FEW140 SCT200=



000
FTUS45 KBOU 010533
TAFBJC
TAF
KBJC 010533Z 0106/0206 VRB05KT P6SM FEW120 SCT200
     FM010800 26008KT P6SM FEW120 SCT200
     FM011200 VRB05KT P6SM FEW130 SCT220
     FM012000 12007KT P6SM FEW090 SCT130 BKN200
     FM020000 01007KT P6SM SCT140 BKN200
     FM020300 26008KT P6SM FEW140 SCT200=



000
FTUS45 KBOU 010533
TAFDEN
TAF
KDEN 010533Z 0106/0212 25009KT P6SM FEW150 SCT220
     FM010800 21008KT P6SM FEW140 SCT220
     FM011600 15007KT P6SM SCT140 SCT220
     FM012000 10008KT P6SM SCT130 BKN200
     FM012300 05008KT P6SM FEW090 SCT130 BKN200
     FM020400 23011KT P6SM FEW140 SCT200=



000
FTUS45 KBOU 010405 AAC
TAFDEN
TAF AMD
KDEN 010405Z 0104/0206 27009KT P6SM SCT150 BKN220
     FM010800 22008KT P6SM SCT140 BKN220
     FM011600 15007KT P6SM SCT140 BKN220
     FM012000 10008KT P6SM SCT130 BKN200
     FM020000 04007KT P6SM FEW080 SCT120 BKN200
     FM020400 23011KT P6SM FEW140 SCT200=



000
FTUS45 KBOU 010405 AAC
TAFDEN
TAF AMD
KDEN 010405Z 0104/0206 27009KT P6SM SCT150 BKN220
     FM010800 22008KT P6SM SCT140 BKN220
     FM011600 15007KT P6SM SCT140 BKN220
     FM012000 10008KT P6SM SCT130 BKN200
     FM020000 04007KT P6SM FEW080 SCT120 BKN200
     FM020400 23011KT P6SM FEW140 SCT200=



000
FTUS45 KBOU 010354 AAB
TAFAPA
TAF AMD
KAPA 010354Z 0104/0124 23007KT P6SM SCT140 BKN220
     FM010700 18008KT P6SM SCT140 BKN220
     FM011400 VRB05KT P6SM SCT140 SCT200
     FM011700 15007KT P6SM SCT130 BKN200
     FM012100 10008KT P6SM BKN120 BKN200=



000
FTUS45 KBOU 010354 AAB
TAFAPA
TAF AMD
KAPA 010354Z 0104/0124 23007KT P6SM SCT140 BKN220
     FM010700 18008KT P6SM SCT140 BKN220
     FM011400 VRB05KT P6SM SCT140 SCT200
     FM011700 15007KT P6SM SCT130 BKN200
     FM012100 10008KT P6SM BKN120 BKN200=



000
FTUS45 KBOU 010322 AAB
TAFDEN
TAF AMD
KDEN 010322Z 0103/0206 20010KT P6SM SCT150 BKN220
     FM011500 VRB05KT P6SM SCT140 BKN220
     FM011900 08007KT P6SM SCT130 BKN200
     FM020200 19008KT P6SM BKN130 BKN200=



000
FTUS45 KBOU 010322 AAB
TAFDEN
TAF AMD
KDEN 010322Z 0103/0206 20010KT P6SM SCT150 BKN220
     FM011500 VRB05KT P6SM SCT140 BKN220
     FM011900 08007KT P6SM SCT130 BKN200
     FM020200 19008KT P6SM BKN130 BKN200=



000
FTUS45 KBOU 010035 AAA
TAFAPA
TAF AMD
KAPA 010035Z 0101/0124 16013KT P6SM SCT150 BKN220
     FM010700 19007KT P6SM FEW140 SCT220
     FM011400 VRB05KT P6SM SCT140 SCT200
     FM011700 15007KT P6SM SCT130 BKN200
     FM012100 10008KT P6SM BKN120 BKN200=



000
FTUS45 KBOU 010033 AAA
TAFDEN
TAF AMD
KDEN 010033Z 0101/0206 16008KT P6SM SCT150 BKN220
     FM010300 21010KT P6SM FEW150 SCT220
     FM011500 VRB05KT P6SM FEW130 BKN200
     FM011900 08007KT P6SM SCT130 BKN200
     FM020200 19008KT P6SM BKN140 BKN200=



000
FTUS45 KBOU 312324
TAFBJC
TAF
KBJC 312324Z 0100/0124 VRB05KT P6SM FEW120 BKN220
     FM010700 26006KT P6SM FEW120 BKN220
     FM011500 VRB05KT P6SM FEW120 BKN200=



000
FTUS45 KBOU 312324
TAFAPA
TAF
KAPA 312324Z 0100/0124 15009KT P6SM FEW140 BKN220
     FM010200 17009KT P6SM FEW140 SCT220
     FM010700 20011KT P6SM FEW120 BKN220
     FM011400 VRB05KT P6SM FEW120 BKN200
     FM011900 10007KT P6SM BKN120 BKN200=



000
FTUS45 KBOU 312324
TAFDEN
TAF
KDEN 312324Z 0100/0206 33007KT P6SM FEW140 BKN220
     FM010300 20010KT P6SM FEW140 SCT220
     FM010700 22012KT P6SM FEW120 BKN220
     FM011400 VRB05KT P6SM FEW120 BKN200
     FM011900 08007KT P6SM FEW120 BKN200
     FM020200 20007KT P6SM BKN150 BKN200=



000
FTUS45 KBOU 312056 AAB
TAFDEN
TAF AMD
KDEN 312056Z 3121/0124 33007KT P6SM FEW140 BKN220
     FM010000 14007KT P6SM FEW140 BKN220
     FM010300 20010KT P6SM FEW140 SCT220
     FM010700 22012KT P6SM FEW120 BKN220
     FM011400 VRB05KT P6SM FEW120 BKN200
     FM011900 04007KT P6SM FEW120 SCT200=



000
FTUS45 KBOU 311907 AAA
TAFDEN
TAF AMD
KDEN 311907Z 3119/0124 32007KT P6SM FEW140 BKN220
     FM010000 14007KT P6SM FEW140 BKN220
     FM010200 20010KT P6SM FEW140 SCT220
     FM010700 22012KT P6SM FEW120 BKN220
     FM011400 VRB05KT P6SM FEW120 BKN200
     FM011900 04007KT P6SM FEW120 SCT200=



000
FTUS45 KBOU 311739
TAFBJC
TAF
KBJC 311739Z 3118/0118 VRB05KT P6SM SCT120 BKN220
     FM311800 35007KT P6SM FEW120 BKN220
     FM010200 VRB05KT P6SM FEW140 SCT220
     FM010700 30006KT P6SM FEW120 BKN220
     FM011500 VRB05KT P6SM FEW120 BKN200=



000
FTUS45 KBOU 311739
TAFDEN
TAF
KDEN 311739Z 3118/0124 26006KT P6SM FEW140 BKN220
     FM311900 29007KT P6SM FEW140 BKN220
     FM010200 20010KT P6SM FEW140 SCT220
     FM010700 22012KT P6SM FEW120 BKN220
     FM011400 VRB05KT P6SM FEW120 BKN200
     FM011900 04007KT P6SM FEW120 SCT200=



000
FTUS45 KBOU 311739
TAFAPA
TAF
KAPA 311739Z 3118/0118 VRB05KT P6SM SCT140 BKN220
     FM311900 16009KT P6SM FEW140 BKN220
     FM010200 17009KT P6SM FEW140 SCT220
     FM010700 20011KT P6SM FEW120 BKN220
     FM011500 VRB05KT P6SM FEW120 BKN200=



000
FTUS45 KBOU 311613 AAA
TAFAPA
TAF AMD
KAPA 311613Z 3116/0112 VRB05KT P6SM FEW140 BKN220
     FM311700 17012KT P6SM SCT220
     FM010200 19010KT P6SM FEW140 SCT220
     FM010900 20010KT P6SM SCT080 BKN180=



000
FTUS45 KBOU 311459 AAA
TAFDEN
TAF AMD
KDEN 311459Z 3115/0118 25006KT P6SM FEW130 BKN220
     FM311800 17010KT P6SM SCT220
     FM010200 20010KT P6SM FEW140 SCT220
     FM010900 22012KT P6SM SCT090 BKN180=



000
FTUS45 KBOU 311137
TAFDEN
TAF
KDEN 311137Z 3112/0118 15010KT P6SM SKC
     FM311300 34008KT P6SM VCFG SCT005
     FM311600 17014KT P6SM SCT220
     FM010200 20010KT P6SM FEW140 SCT220
     FM010900 22012KT P6SM SCT090 BKN180=



000
FTUS45 KBOU 311137
TAFAPA
TAF
KAPA 311137Z 3112/0112 16012KT P6SM SKC
     FM311400 15014G22KT P6SM FEW220
     FM311700 17016KT P6SM SCT220
     FM010200 19010KT P6SM FEW140 SCT220
     FM010900 20010KT P6SM SCT080 BKN180=



000
FTUS45 KBOU 311137
TAFBJC
TAF
KBJC 311137Z 3112/0112 35008KT P6SM VCFG SCT005
     FM311600 02010KT P6SM FEW050
     FM010100 VRB05KT P6SM FEW140 SCT220
     FM010900 29014KT P6SM SCT080 BKN180=



000
FTUS45 KBOU 310928 AAA
TAFAPA
TAF AMD
KAPA 310928Z 3109/0106 16012G18KT P6SM SKC
     FM311400 15014G22KT P6SM FEW220
     FM311700 17013KT P6SM SCT220
     FM010100 19008KT P6SM FEW140 SCT220=



000
FTUS45 KBOU 310903 AAA
TAFDEN
TAF AMD
KDEN 310903Z 3109/0112 13008KT P6SM SKC
     FM311200 06010KT P6SM FEW220
     FM311400 34008KT P6SM VCFG SCT005
     FM311700 17014KT P6SM SCT220
     FM010300 20010KT P6SM FEW140 SCT220=



000
FTUS45 KBOU 310531
TAFAPA
TAF
KAPA 310531Z 3106/0106 16009KT P6SM FEW220
     FM311700 17013KT P6SM SCT220
     FM010100 19008KT P6SM FEW140 SCT220=



000
FTUS45 KBOU 310531
TAFBJC
TAF
KBJC 310531Z 3106/0106 VRB06KT P6SM FEW220
     FM311200 35010KT P6SM VCFG SCT005
     FM311600 02007KT P6SM FEW050
     FM010100 VRB04KT P6SM FEW140 SCT220=



000
FTUS45 KBOU 310531
TAFDEN
TAF
KDEN 310531Z 3106/0112 15012KT P6SM SKC
     FM311200 21010KT P6SM FEW220
     FM311400 31008KT P6SM VCFG SCT005
     FM311700 17014KT P6SM SCT220
     FM010300 20010KT P6SM FEW140 SCT220=



000
FTUS45 KBOU 310300 AAA
TAFDEN
TAF AMD
KDEN 310300Z 3103/0106 14007KT P6SM FEW220
     FM310600 16008KT P6SM SKC
     FM311100 21010KT P6SM FEW220
     FM311200 31008KT P6SM VCFG SCT005
     FM311600 17013KT P6SM FEW220
     FM312100 21008KT P6SM FEW220
     FM010300 18010KT P6SM FEW140=



000
FTUS45 KBOU 302336
TAFBJC
TAF
KBJC 302336Z 3100/3124 07007KT P6SM FEW110 FEW220
     FM310100 24007KT P6SM FEW220
     FM310800 32006KT P6SM SKC
     FM311300 35010KT P6SM VCFG SCT020 SCT050
     FM311700 05007KT P6SM FEW050
     FM312000 VRB04KT P6SM FEW220=



000
FTUS45 KBOU 302336
TAFAPA
TAF
KAPA 302336Z 3100/3124 09008KT P6SM FEW110 FEW220
     FM310200 13007KT P6SM FEW220
     FM310800 18009KT P6SM SKC
     FM311300 17013KT P6SM FEW050
     FM311600 16016G25KT P6SM SKC
     FM312100 21008KT P6SM FEW220=



000
FTUS45 KBOU 302336
TAFDEN
TAF
KDEN 302336Z 3100/0106 08008KT P6SM FEW110 FEW220
     FM310200 14007KT P6SM FEW220
     FM310400 21008KT P6SM SKC
     FM311100 16010KT P6SM FEW220
     FM311300 10007KT P6SM VCFG FEW030
     FM311600 17013KT P6SM SKC
     FM312100 21008KT P6SM FEW220
     FM010300 18010KT P6SM FEW140=



000
FTUS45 KBOU 302307 AAD
TAFDEN
TAF AMD
KDEN 302307Z 3023/3124 08008KT P6SM FEW110 FEW220
     FM310100 15007KT P6SM FEW110 FEW220
     FM310400 21008KT P6SM FEW220
     FM311500 VRB05KT P6SM SKC
     FM311900 13009KT P6SM FEW220=



000
FTUS45 KBOU 302056 AAC
TAFDEN
TAF AMD
KDEN 302056Z 3021/3124 08008KT P6SM FEW110 FEW220
     FM302300 13009KT P6SM FEW220
     FM310400 21008KT P6SM SCT220
     FM311500 VRB05KT P6SM FEW220
     FM311900 13009KT P6SM FEW220=



000
FTUS45 KBOU 302010 AAB
TAFDEN
TAF AMD
KDEN 302010Z 3020/3124 09007KT P6SM FEW110 FEW220
     FM302300 13008KT P6SM FEW220
     FM310400 20008KT P6SM SCT220
     FM311500 VRB05KT P6SM FEW220
     FM311900 13009KT P6SM FEW220=



000
FTUS45 KBOU 301927 AAA
TAFBJC
TAF AMD
KBJC 301927Z 3019/3118 14006KT P6SM FEW100 FEW220
     FM302100 10007KT P6SM FEW110 FEW220
     FM310100 12006KT P6SM FEW220
     FM310500 30005KT P6SM SCT220
     FM311500 VRB05KT P6SM FEW220=



000
FTUS45 KBOU 301926 AAA
TAFDEN
TAF AMD
KDEN 301926Z 3019/3124 14008KT P6SM FEW110 FEW220
     FM302100 09009KT P6SM FEW110 FEW220
     FM310100 13008KT P6SM FEW220
     FM310500 19008KT P6SM SCT220
     FM311500 VRB05KT P6SM FEW220
     FM311900 13009KT P6SM FEW220=



000
FTUS45 KBOU 301737
TAFBJC
TAF
KBJC 301737Z 3018/3118 VRB06KT P6SM FEW100 FEW220
     FM302000 10008KT P6SM FEW110 FEW220
     FM310100 12006KT P6SM FEW220
     FM310500 30005KT P6SM SCT220
     FM311500 VRB05KT P6SM FEW220=



000
FTUS45 KBOU 301737
TAFAPA
TAF
KAPA 301737Z 3018/3118 VRB06KT P6SM FEW120 FEW220
     FM302000 09009KT P6SM FEW110 FEW220
     FM310100 13008KT P6SM FEW220
     FM310500 17008KT P6SM SCT220
     FM311500 VRB05KT P6SM FEW220=



000
FTUS45 KBOU 301737
TAFDEN
TAF
KDEN 301737Z 3018/3124 VRB06KT P6SM FEW110 FEW220
     FM302000 09009KT P6SM FEW110 FEW220
     FM310100 13008KT P6SM FEW220
     FM310500 19008KT P6SM SCT220
     FM311500 VRB05KT P6SM FEW220
     FM311900 13009KT P6SM FEW220=



000
FTUS45 KBOU 301737
TAFAPA
TAF
KAPA 301737Z 3018/3118 VRB06KT P6SM FEW120 FEW220
     FM302000 09009KT P6SM FEW110 FEW220
     FM310100 13008KT P6SM FEW220
     FM310500 17008KT P6SM SCT220
     FM311500 VRB05KT P6SM FEW220=



000
FTUS45 KBOU 301737
TAFDEN
TAF
KDEN 301737Z 3018/3124 VRB06KT P6SM FEW110 FEW220
     FM302000 09009KT P6SM FEW110 FEW220
     FM310100 13008KT P6SM FEW220
     FM310500 19008KT P6SM SCT220
     FM311500 VRB05KT P6SM FEW220
     FM311900 13009KT P6SM FEW220=



000
FTUS45 KBOU 301737
TAFBJC
TAF
KBJC 301737Z 3018/3118 VRB06KT P6SM FEW100 FEW220
     FM302000 10008KT P6SM FEW110 FEW220
     FM310100 12006KT P6SM FEW220
     FM310500 30005KT P6SM SCT220
     FM311500 VRB05KT P6SM FEW220=



000
FTUS45 KBOU 301452 AAA
TAFDEN
TAF AMD
KDEN 301452Z 3015/3118 22006KT P6SM FEW120
     FM301700 16007KT P6SM FEW080 SCT120
     FM302100 09009KT P6SM FEW110 SCT200
     FM310200 13008KT P6SM FEW200
     FM310700 17012KT P6SM SCT200
     FM311200 29005KT P6SM SCT200
     FM311500 VRB04KT P6SM SCT200=



000
FTUS45 KBOU 301452 AAA
TAFAPA
TAF AMD
KAPA 301452Z 3015/3112 VRB04KT P6SM FEW120
     FM301700 16007KT P6SM FEW080 SCT120
     FM302100 09009KT P6SM FEW110 SCT200
     FM310200 13008KT P6SM FEW200
     FM310700 17012KT P6SM SCT200=



000
FTUS45 KBOU 301452 AAA
TAFBJC
TAF AMD
KBJC 301452Z 3015/3112 VRB04KT P6SM FEW120
     FM301700 12007KT P6SM FEW080 SCT120
     FM310000 VRB03KT P6SM FEW200
     FM310300 33007KT P6SM SCT200=



000
FTUS45 KBOU 301125
TAFDEN
TAF
KDEN 301125Z 3012/3118 VRB04KT P6SM FEW120
     FM301700 07007KT P6SM FEW080 SCT120
     FM302100 09009KT P6SM FEW110 SCT200
     FM310200 13008KT P6SM FEW200
     FM310700 17012KT P6SM SCT200
     FM311200 29005KT P6SM SCT200
     FM311500 VRB04KT P6SM SCT200=



000
FTUS45 KBOU 301125
TAFBJC
TAF
KBJC 301125Z 3012/3112 VRB04KT P6SM FEW120
     FM301700 12007KT P6SM FEW080 SCT120
     FM310000 VRB03KT P6SM FEW200
     FM310300 33007KT P6SM SCT200=



000
FTUS45 KBOU 301125
TAFAPA
TAF
KAPA 301125Z 3012/3112 VRB04KT P6SM FEW120
     FM301700 06007KT P6SM FEW080 SCT120
     FM302100 09009KT P6SM FEW110 SCT200
     FM310200 13008KT P6SM FEW200
     FM310700 17012KT P6SM SCT200=



000
FTUS45 KBOU 300857 AAB
TAFDEN
TAF AMD
KDEN 300857Z 3009/3112 VRB05KT P6SM SCT120
     FM301100 20005KT P6SM FEW070 SCT110
     FM301400 VRB04KT P6SM FEW070 SCT110
     FM301700 07007KT P6SM FEW070 SCT110
     FM302100 09009KT P6SM FEW110 SCT200
     FM310200 13008KT P6SM FEW150
     FM310700 17012KT P6SM SCT200=



000
FTUS45 KBOU 300735 AAA
TAFDEN
TAF AMD
KDEN 300735Z 3008/3112 06007KT P6SM FEW220
     FM301100 15008KT P6SM FEW070 SCT110
     FM301400 VRB04KT P6SM FEW070 SCT110
     FM301700 10007KT P6SM FEW070 SCT110
     FM302100 09010KT P6SM FEW110 SCT200
     FM310200 13008KT P6SM FEW150
     FM310700 17011KT P6SM SCT200=



000
FTUS45 KBOU 300534
TAFDEN
TAF
KDEN 300534Z 3006/3112 14007KT P6SM FEW220
     FM301100 20008KT P6SM FEW070 SCT110
     FM301400 VRB04KT P6SM FEW070 SCT110
     FM301700 10007KT P6SM FEW070 SCT110
     FM302100 09010KT P6SM FEW110 SCT200
     FM310200 13008KT P6SM FEW150
     FM310700 17011KT P6SM SCT200=



000
FTUS45 KBOU 300534
TAFBJC
TAF
KBJC 300534Z 3006/3106 28009KT P6SM FEW080 SCT150
     FM301100 VRB05KT P6SM FEW070 SCT110
     FM301700 13008KT P6SM FEW070 SCT110
     FM310000 VRB05KT P6SM FEW150=



000
FTUS45 KBOU 300534
TAFAPA
TAF
KAPA 300534Z 3006/3106 16007KT P6SM FEW200
     FM301100 24005KT P6SM FEW070 SCT200
     FM301500 VRB04KT P6SM FEW070 SCT100
     FM301800 08008KT P6SM FEW070 SCT100
     FM302100 10010KT P6SM FEW100 SCT200
     FM310200 14009KT P6SM FEW150=



000
FTUS45 KBOU 300445 AAD
TAFDEN
TAF AMD
KDEN 300445Z 3005/3106 10006KT P6SM FEW140 SCT220
     FM300700 14007KT P6SM FEW220
     FM301100 20008KT P6SM SKC
     FM301400 34007KT P6SM FEW060 SCT100
     FM301700 06008KT P6SM FEW080 SCT140
     FM302100 09010KT P6SM FEW120 SCT200
     FM310200 17008KT P6SM FEW150=



000
FTUS45 KBOU 300328 AAB
TAFAPA
TAF AMD
KAPA 300328Z 3003/3024 19007KT P6SM FEW200
     FM301500 34006KT P6SM FEW070 SCT110
     FM301800 05009KT P6SM FEW090 SCT140
     FM302100 10010KT P6SM FEW100 SCT200=



000
FTUS45 KBOU 300302 AAC
TAFDEN
TAF AMD
KDEN 300302Z 3003/3106 09007KT P6SM FEW140 SCT220
     FM300500 15008KT P6SM FEW220
     FM301000 20008KT P6SM SKC
     FM301400 34007KT P6SM FEW060 SCT100
     FM301700 06008KT P6SM FEW080 SCT140
     FM302100 09010KT P6SM FEW120 SCT200
     FM310200 17008KT P6SM FEW150=



000
FTUS45 KBOU 300147 AAA
TAFBJC
TAF AMD
KBJC 300147Z 3002/3024 27007KT P6SM FEW080 SCT150
     FM300500 VRB05KT P6SM FEW150
     FM301400 35005KT P6SM FEW070 SCT120
     FM301700 05008KT P6SM FEW090 SCT140
     FM302100 10009KT P6SM FEW120 SCT200=



000
FTUS45 KBOU 300145 AAA
TAFAPA
TAF AMD
KAPA 300145Z 3002/3024 02006KT P6SM FEW140 SCT200
     FM300400 18006KT P6SM FEW200
     FM301500 34006KT P6SM FEW070 SCT110
     FM301800 05009KT P6SM FEW090 SCT140
     FM302100 10010KT P6SM FEW100 SCT200=



000
FTUS45 KBOU 300143 AAB
TAFDEN
TAF AMD
KDEN 300143Z 3002/3106 05007KT P6SM FEW140 SCT220
     FM300400 35007KT P6SM FEW220
     FM301000 23007KT P6SM SKC
     FM301400 34007KT P6SM FEW060 SCT100
     FM301700 06008KT P6SM FEW080 SCT140
     FM302100 09010KT P6SM FEW120 SCT200
     FM310200 17008KT P6SM FEW150=



000
FTUS45 KBOU 300028 AAA
TAFDEN
TAF AMD
KDEN 300028Z 3000/3106 27010KT P6SM FEW140 SCT220
     FM300500 22008KT P6SM SCT220
     FM301400 35006KT P6SM FEW060 SCT100
     FM301700 06008KT P6SM FEW080 SCT140
     FM302100 09010KT P6SM FEW120 SCT200
     FM310200 17008KT P6SM FEW150=



000
FTUS45 KBOU 292339
TAFDEN
TAF
KDEN 292339Z 3000/3106 30012G17KT P6SM FEW140 SCT200
     FM300200 27009KT P6SM FEW140 BKN200
     FM300500 22007KT P6SM FEW140 SCT200
     FM301400 35006KT P6SM SCT060 SCT100
     FM301700 06008KT P6SM FEW080 SCT140
     FM302100 09010KT P6SM FEW120 SCT200
     FM310200 17008KT P6SM FEW150=



000
FTUS45 KBOU 292339
TAFBJC
TAF
KBJC 292339Z 3000/3024 28013G22KT P6SM SCT140 SCT200
     FM300200 27012KT P6SM FEW120 BKN200
     FM300500 24007KT P6SM SCT200
     FM301400 35005KT P6SM FEW060 SCT100
     FM301700 05008KT P6SM FEW080 SCT140
     FM302100 10009KT P6SM FEW120 SCT200=



000
FTUS45 KBOU 292339
TAFAPA
TAF
KAPA 292339Z 3000/3024 34010KT P6SM FEW140 SCT200
     FM300200 26007KT P6SM FEW140 SCT200
     FM300500 18006KT P6SM FEW140 SCT200
     FM301500 35006KT P6SM SCT060 SCT100
     FM301800 05008KT P6SM FEW090 SCT140
     FM302100 10010KT P6SM FEW110 SCT200=



000
FTUS45 KBOU 292249 AAC
TAFBJC
TAF AMD
KBJC 292249Z 2923/3018 28019G28KT P6SM FEW120 FEW200
     FM300100 27015KT P6SM FEW120 BKN200
     FM300500 25007KT P6SM SCT200
     FM301200 18006KT P6SM FEW200
     FM301600 08008KT P6SM SKC=



000
FTUS45 KBOU 292249 AAC
TAFBJC
TAF AMD
KBJC 292249Z 2923/3018 28019G28KT P6SM FEW120 FEW200
     FM300100 27015KT P6SM FEW120 BKN200
     FM300500 25007KT P6SM SCT200
     FM301200 18006KT P6SM FEW200
     FM301600 08008KT P6SM SKC=



000
FTUS45 KBOU 292212 AAB
TAFAPA
TAF AMD
KAPA 292212Z 2922/3018 03009KT P6SM FEW120 SCT220
     FM300000 34008KT P6SM FEW120 BKN200
     FM300200 26007KT P6SM SCT120 BKN200
     FM300400 18006KT P6SM FEW120 SCT200
     FM301600 10005KT P6SM SKC=



000
FTUS45 KBOU 292209 AAC
TAFDEN
TAF AMD
KDEN 292209Z 2922/3024 30010G20KT P6SM FEW140 SCT200
     FM292300 31012KT P6SM FEW130 BKN200
     FM300200 28009KT P6SM SCT130 BKN200
     FM300500 22007KT P6SM FEW140 SCT200
     FM301600 11005KT P6SM SKC=



000
FTUS45 KBOU 292104 AAA
TAFAPA
TAF AMD
KAPA 292104Z 2921/3018 33008KT P6SM FEW130 SCT220
      TEMPO 2921/2923 32012G20KT
     FM292300 30010KT P6SM FEW120 BKN200
     FM300200 25008KT P6SM FEW120 SCT200
     FM300500 18006KT P6SM FEW200
     FM301600 10005KT P6SM SKC=



000
FTUS45 KBOU 292100 AAB
TAFDEN
TAF AMD
KDEN 292100Z 2921/3024 29015G25KT P6SM FEW120 SCT220
     FM292300 31013KT P6SM FEW120 BKN200
     FM300200 28009KT P6SM FEW120 SCT200
     FM300600 22007KT P6SM FEW200
     FM301600 11005KT P6SM SKC=



000
FTUS45 KBOU 292036 AAB
TAFBJC
TAF AMD
KBJC 292036Z 2921/3018 28019G30KT P6SM FEW120 FEW200
     FM292300 32013G22KT P6SM FEW120 BKN200
     FM300300 28010KT P6SM FEW120 SCT200
     FM300500 24007KT P6SM FEW200
     FM301600 09006KT P6SM SKC=



000
FTUS45 KBOU 291924 AAA
TAFBJC
TAF AMD
KBJC 291924Z 2919/3018 25013KT P6SM FEW120 SCT220
      TEMPO 2919/2922 27018G30KT
     FM292200 32010G15KT P6SM FEW120 BKN200
     FM300200 28009KT P6SM FEW120 SCT200
     FM300500 24007KT P6SM FEW200
     FM301600 09006KT P6SM SKC=



000
FTUS45 KBOU 291921 AAA
TAFDEN
TAF AMD
KDEN 291921Z 2919/3024 26008KT P6SM FEW140 SCT220
      TEMPO 2919/2922 28013G20KT
     FM292200 30012KT P6SM FEW140 BKN200
     FM300200 28009KT P6SM FEW140 SCT200
     FM300600 22007KT P6SM FEW200
     FM301600 11005KT P6SM SKC=



000
FTUS45 KBOU 291720
TAFBJC
TAF
KBJC 291720Z 2918/3018 24006KT P6SM FEW140
     FM291900 29010KT P6SM FEW140
     FM300300 29008KT P6SM FEW140
     FM301600 09006KT P6SM SKC=



000
FTUS45 KBOU 291720
TAFDEN
TAF
KDEN 291720Z 2918/3024 23008KT P6SM FEW140
     FM292100 01010KT P6SM FEW140
     FM300300 28010KT P6SM FEW140
     FM300600 22006KT P6SM FEW140
     FM301600 11005KT P6SM SKC=



000
FTUS45 KBOU 291720
TAFAPA
TAF
KAPA 291720Z 2918/3018 25006KT P6SM FEW140
     FM292100 02007KT P6SM FEW140
     FM300300 18006KT P6SM FEW140
     FM301600 10005KT P6SM SKC=



000
FTUS45 KBOU 291511 AAA
TAFBJC
TAF AMD
KBJC 291511Z 2915/3012 VRB04KT P6SM FEW140
     FM291900 29011KT P6SM FEW140
     FM300300 26006KT P6SM FEW200
     FM301000 26010KT P6SM FEW140 SCT200=



000
FTUS45 KBOU 291508 AAA
TAFDEN
TAF AMD
KDEN 291508Z 2915/3018 23008KT P6SM FEW140
     FM292100 01010KT P6SM FEW140
     FM300300 28010KT P6SM FEW200
     FM300600 23007KT P6SM FEW140 SCT200
     FM301100 21005KT P6SM FEW140 SCT200=



    US Dept of Commerce
    National Oceanic and Atmospheric Administration
    National Weather Service
    1325 East West Highway
    Silver Spring, MD 20910
    Page Author: NWS Internet Services Team
Disclaimer
Information Quality
Credits
Glossary
Privacy Policy
Freedom of Information Act (FOIA)
About Us
Career Opportunities